createdAt,value
2019-02-12T00:01:14.817Z,2.49
2019-02-12T00:03:43.484Z,2.46
2019-02-12T00:06:12.077Z,2.42
2019-02-12T00:08:40.689Z,2.32
2019-02-12T00:11:09.340Z,2.41
2019-02-12T00:13:37.946Z,2.31
2019-02-12T00:16:06.534Z,2.28
2019-02-12T00:18:35.162Z,2.35
2019-02-12T00:21:09.244Z,2.31
2019-02-12T00:23:34.178Z,2.54
2019-02-12T00:26:02.845Z,2.56
2019-02-12T00:28:31.608Z,2.57
2019-02-12T00:31:00.266Z,2.43
2019-02-12T00:33:28.962Z,2.32
2019-02-12T00:35:57.612Z,2.42
2019-02-12T00:38:26.199Z,2.52
2019-02-12T00:40:54.835Z,2.50
2019-02-12T00:43:23.443Z,2.59
2019-02-12T00:45:52.070Z,2.73
2019-02-12T00:48:20.680Z,2.70
2019-02-12T00:50:49.299Z,2.74
2019-02-12T00:53:18.042Z,2.76
2019-02-12T00:55:46.726Z,2.62
2019-02-12T00:58:15.358Z,2.67
2019-02-12T01:00:46.875Z,2.67
2019-02-12T01:03:18.620Z,2.55
2019-02-12T01:05:49.976Z,2.60
2019-02-12T01:08:21.836Z,2.51
2019-02-12T01:10:53.679Z,2.44
2019-02-12T01:13:25.564Z,2.41
2019-02-12T01:15:57.047Z,2.34
2019-02-12T01:18:30.836Z,2.30
2019-02-12T01:21:01.630Z,2.26
2019-02-12T01:23:30.319Z,2.45
2019-02-12T01:25:58.931Z,2.31
2019-02-12T01:28:27.542Z,2.32
2019-02-12T01:30:56.201Z,2.34
2019-02-12T01:33:24.815Z,2.43
2019-02-12T01:35:53.518Z,2.40
2019-02-12T01:38:22.146Z,2.48
2019-02-12T01:40:50.738Z,2.55
2019-02-12T01:43:19.336Z,2.52
2019-02-12T01:45:48.086Z,2.57
2019-02-12T01:48:16.646Z,2.69
2019-02-12T01:50:45.245Z,2.77
2019-02-12T01:53:13.860Z,2.80
2019-02-12T01:55:42.473Z,2.76
2019-02-12T01:58:11.285Z,2.60
2019-02-12T02:00:39.912Z,2.73
2019-02-12T02:03:08.574Z,2.71
2019-02-12T02:05:37.180Z,2.58
2019-02-12T02:08:05.771Z,2.55
2019-02-12T02:10:34.430Z,2.56
2019-02-12T02:13:03.124Z,2.62
2019-02-12T02:15:31.733Z,2.65
2019-02-12T02:18:00.355Z,2.79
2019-02-12T02:20:29.074Z,2.91
2019-02-12T02:22:57.757Z,2.79
2019-02-12T02:25:26.343Z,2.91
2019-02-12T02:27:54.987Z,2.76
2019-02-12T02:30:23.598Z,2.91
2019-02-12T02:32:53.085Z,2.89
2019-02-12T02:35:21.761Z,2.91
2019-02-12T02:37:50.388Z,2.92
2019-02-12T02:40:18.979Z,2.97
2019-02-12T02:42:47.686Z,3.04
2019-02-12T02:45:16.349Z,3.06
2019-02-12T02:47:44.954Z,3.09
2019-02-12T02:50:13.556Z,3.12
2019-02-12T02:52:42.163Z,3.27
2019-02-12T02:55:11.250Z,3.17
2019-02-12T02:57:39.893Z,3.09
2019-02-12T03:00:09.069Z,3.14
2019-02-12T03:02:37.691Z,3.22
2019-02-12T03:05:07.912Z,3.11
2019-02-12T03:07:36.667Z,3.08
2019-02-12T03:10:05.282Z,3.01
2019-02-12T03:12:33.876Z,2.93
2019-02-12T03:15:02.522Z,2.97
2019-02-12T03:17:31.188Z,2.95
2019-02-12T03:19:59.811Z,2.96
2019-02-12T03:22:28.478Z,2.66
2019-02-12T03:24:57.094Z,2.86
2019-02-12T03:27:25.779Z,2.90
2019-02-12T03:29:54.433Z,2.88
2019-02-12T03:32:23.124Z,2.90
2019-02-12T03:34:51.741Z,2.82
2019-02-12T03:37:20.362Z,2.81
2019-02-12T03:39:49.208Z,2.71
2019-02-12T03:42:17.786Z,2.78
2019-02-12T03:44:46.394Z,2.70
2019-02-12T03:47:15.057Z,2.66
2019-02-12T03:49:43.659Z,2.62
2019-02-12T03:52:13.203Z,2.61
2019-02-12T03:54:42.161Z,2.62
2019-02-12T03:57:10.875Z,2.59
2019-02-12T03:59:39.477Z,2.49
2019-02-12T04:02:08.400Z,2.49
2019-02-12T04:04:37.005Z,2.50
2019-02-12T04:07:05.631Z,2.51
2019-02-12T04:09:34.253Z,2.51
2019-02-12T04:12:02.882Z,2.54
2019-02-12T04:14:31.518Z,2.56
2019-02-12T04:17:00.169Z,2.61
2019-02-12T04:19:28.794Z,2.57
2019-02-12T04:21:57.456Z,2.60
2019-02-12T04:24:26.057Z,2.65
2019-02-12T04:26:54.659Z,2.68
2019-02-12T04:29:23.296Z,2.65
2019-02-12T04:31:51.940Z,2.68
2019-02-12T04:34:20.531Z,2.64
2019-02-12T04:36:49.158Z,2.65
2019-02-12T04:39:17.758Z,2.71
2019-02-12T04:41:46.412Z,2.70
2019-02-12T04:44:15.064Z,2.53
2019-02-12T04:46:43.702Z,2.74
2019-02-12T04:49:12.371Z,2.71
2019-02-12T04:51:41.201Z,2.69
2019-02-12T04:54:09.872Z,2.72
2019-02-12T04:56:38.533Z,2.66
2019-02-12T04:59:07.162Z,2.62
2019-02-12T05:01:35.803Z,2.62
2019-02-12T05:04:04.452Z,2.61
2019-02-12T05:06:33.039Z,2.57
2019-02-12T05:09:19.142Z,2.60
2019-02-12T05:11:51.098Z,2.54
2019-02-12T05:14:19.714Z,2.57
2019-02-12T05:16:48.358Z,2.56
2019-02-12T05:19:16.980Z,2.59
2019-02-12T05:21:45.607Z,2.58
2019-02-12T05:24:14.239Z,2.60
2019-02-12T05:26:42.867Z,2.57
2019-02-12T05:29:11.615Z,2.60
2019-02-12T05:31:40.213Z,2.58
2019-02-12T05:34:08.846Z,2.55
2019-02-12T05:36:37.462Z,2.55
2019-02-12T05:39:06.292Z,2.57
2019-02-12T05:41:34.941Z,2.52
2019-02-12T05:44:03.563Z,2.52
2019-02-12T05:46:32.142Z,2.50
2019-02-12T05:49:00.788Z,2.60
2019-02-12T05:51:29.398Z,2.55
2019-02-12T05:53:58.059Z,2.56
2019-02-12T05:56:26.661Z,2.57
2019-02-12T05:58:55.257Z,2.66
2019-02-12T06:01:23.852Z,2.64
2019-02-12T06:03:52.527Z,2.61
2019-02-12T06:06:21.178Z,2.63
2019-02-12T06:08:49.812Z,2.68
2019-02-12T06:11:18.444Z,2.77
2019-02-12T06:13:47.081Z,2.73
2019-02-12T06:16:15.710Z,2.74
2019-02-12T06:18:44.341Z,2.71
2019-02-12T06:21:12.941Z,2.69
2019-02-12T06:23:41.550Z,2.76
2019-02-12T06:26:10.219Z,2.74
2019-02-12T06:28:38.870Z,2.77
2019-02-12T06:31:07.464Z,2.73
2019-02-12T06:33:36.067Z,2.64
2019-02-12T06:36:04.647Z,2.58
2019-02-12T06:38:33.256Z,2.51
2019-02-12T06:41:01.854Z,2.50
2019-02-12T06:43:30.473Z,2.49
2019-02-12T06:45:59.134Z,2.44
2019-02-12T06:48:27.768Z,2.46
2019-02-12T06:50:56.423Z,2.47
2019-02-12T06:53:25.075Z,2.43
2019-02-12T06:55:53.788Z,2.43
2019-02-12T06:58:22.381Z,2.42
2019-02-12T07:00:51.013Z,2.37
2019-02-12T07:03:21.962Z,2.38
2019-02-12T07:06:18.055Z,2.38
2019-02-12T07:09:12.747Z,2.41
2019-02-12T07:12:11.147Z,2.48
2019-02-12T07:15:04.768Z,2.48
2019-02-12T07:18:17.696Z,2.51
2019-02-12T07:21:12.150Z,2.53
2019-02-12T07:24:28.043Z,2.61
2019-02-12T07:27:33.596Z,2.57
2019-02-12T07:30:32.620Z,2.62
2019-02-12T07:33:18.849Z,2.65
2019-02-12T07:36:21.102Z,2.79
2019-02-12T07:39:08.480Z,2.81
2019-02-12T07:42:17.321Z,2.73
2019-02-12T07:45:26.526Z,2.82
2019-02-12T07:48:51.560Z,2.82
2019-02-12T07:52:06.657Z,2.81
2019-02-12T07:55:08.280Z,2.80
2019-02-12T07:58:13.169Z,2.79
2019-02-12T08:01:19.084Z,2.80
2019-02-12T08:04:13.086Z,2.84
2019-02-12T08:07:05.161Z,2.91
2019-02-12T08:10:15.667Z,2.88
2019-02-12T08:13:15.082Z,2.98
2019-02-12T08:16:25.631Z,3.01
2019-02-12T08:19:53.643Z,3.05
2019-02-12T08:22:54.803Z,3.12
2019-02-12T08:25:45.332Z,3.16
2019-02-12T08:28:35.053Z,3.22
2019-02-12T08:31:33.757Z,3.29
2019-02-12T08:34:45.005Z,3.26
2019-02-12T08:37:45.877Z,3.33
2019-02-12T08:40:43.420Z,3.42
2019-02-12T08:43:51.197Z,3.53
2019-02-12T08:46:32.359Z,3.49
2019-02-12T08:49:38.085Z,3.63
2019-02-12T08:53:03.554Z,3.82
2019-02-12T08:56:01.306Z,3.95
2019-02-12T08:59:00.947Z,4.10
2019-02-12T09:01:49.582Z,4.20
2019-02-12T09:04:44.378Z,4.26
2019-02-12T09:07:31.515Z,4.37
2019-02-12T09:10:25.576Z,4.33
2019-02-12T09:13:07.888Z,4.31
2019-02-12T09:16:09.006Z,4.30
2019-02-12T09:18:53.868Z,4.32
2019-02-12T09:22:22.102Z,4.24
2019-02-12T09:24:58.651Z,4.33
2019-02-12T09:27:53.798Z,4.45
2019-02-12T09:30:51.520Z,4.57
2019-02-12T09:34:16.539Z,4.55
2019-02-12T09:37:41.340Z,4.47
2019-02-12T09:40:59.917Z,4.67
2019-02-12T09:43:58.080Z,4.81
2019-02-12T09:47:14.670Z,4.76
2019-02-12T09:50:39.550Z,4.76
2019-02-12T09:53:38.414Z,4.63
2019-02-12T09:56:24.546Z,4.73
2019-02-12T09:59:08.638Z,4.76
2019-02-12T10:01:53.880Z,4.80
2019-02-12T10:05:07.827Z,4.92
2019-02-12T10:07:59.409Z,4.76
2019-02-12T10:10:59.258Z,4.66
2019-02-12T10:14:02.454Z,4.90
2019-02-12T10:17:00.509Z,4.97
2019-02-12T10:19:45.897Z,5.03
2019-02-12T10:22:26.621Z,5.07
2019-02-12T10:25:17.152Z,5.07
2019-02-12T10:28:13.072Z,5.11
2019-02-12T10:31:02.380Z,5.12
2019-02-12T10:33:30.970Z,5.04
2019-02-12T10:35:59.578Z,4.76
2019-02-12T10:38:28.171Z,4.87
2019-02-12T10:40:56.859Z,4.93
2019-02-12T10:43:25.525Z,5.10
2019-02-12T10:45:54.193Z,5.15
2019-02-12T10:48:22.806Z,5.24
2019-02-12T10:50:51.393Z,5.27
2019-02-12T10:53:19.964Z,5.39
2019-02-12T10:55:48.602Z,5.37
2019-02-12T10:58:17.265Z,5.46
2019-02-12T11:00:45.898Z,5.46
2019-02-12T11:03:14.550Z,5.45
2019-02-12T11:05:43.132Z,5.36
2019-02-12T11:08:11.771Z,5.30
2019-02-12T11:10:40.391Z,5.35
2019-02-12T11:13:09.029Z,5.35
2019-02-12T11:15:37.753Z,5.61
2019-02-12T11:18:06.341Z,5.53
2019-02-12T11:20:35.032Z,5.63
2019-02-12T11:23:03.612Z,5.54
2019-02-12T11:25:32.261Z,5.59
2019-02-12T11:28:01.003Z,5.54
2019-02-12T11:30:29.623Z,5.47
2019-02-12T11:32:58.298Z,5.70
2019-02-12T11:35:27.049Z,5.77
2019-02-12T11:37:55.702Z,5.77
2019-02-12T11:40:24.424Z,5.98
2019-02-12T11:42:53.233Z,5.88
2019-02-12T11:45:21.858Z,5.91
2019-02-12T11:47:50.501Z,5.82
2019-02-12T11:50:19.186Z,5.88
2019-02-12T11:52:47.812Z,5.92
2019-02-12T11:55:16.578Z,5.89
2019-02-12T11:57:45.224Z,6.01
2019-02-12T12:00:16.179Z,5.91
2019-02-12T12:02:44.781Z,5.77
2019-02-12T12:05:13.456Z,5.91
2019-02-12T12:07:42.045Z,5.87
2019-02-12T12:10:10.697Z,5.87
2019-02-12T12:12:39.317Z,5.99
2019-02-12T12:15:08.628Z,6.01
2019-02-12T12:17:37.228Z,6.07
2019-02-12T12:20:06.400Z,6.06
2019-02-12T12:22:35.180Z,6.34
2019-02-12T12:25:04.077Z,6.45
2019-02-12T12:27:32.667Z,6.50
2019-02-12T12:30:01.291Z,6.53
2019-02-12T12:32:29.867Z,6.49
2019-02-12T12:34:59.221Z,6.39
2019-02-12T12:37:27.926Z,6.46
2019-02-12T12:39:56.558Z,6.67
2019-02-12T12:42:25.272Z,6.47
2019-02-12T12:44:54.037Z,6.31
2019-02-12T12:47:22.654Z,6.32
2019-02-12T12:49:51.358Z,6.42
2019-02-12T12:52:20.019Z,6.34
2019-02-12T12:54:48.674Z,6.46
2019-02-12T12:57:17.304Z,6.47
2019-02-12T12:59:45.883Z,6.35
2019-02-12T13:02:15.271Z,6.31
2019-02-12T13:04:43.862Z,6.36
2019-02-12T13:07:12.575Z,6.49
2019-02-12T13:09:41.227Z,6.49
2019-02-12T13:12:09.822Z,6.59
2019-02-12T13:14:38.450Z,6.50
2019-02-12T13:17:07.048Z,6.62
2019-02-12T13:19:35.735Z,6.68
2019-02-12T13:22:04.336Z,6.70
2019-02-12T13:24:32.899Z,6.55
2019-02-12T13:27:01.518Z,6.55
2019-02-12T13:29:30.189Z,6.58
2019-02-12T13:31:58.936Z,6.58
2019-02-12T13:34:27.567Z,6.64
2019-02-12T13:36:56.206Z,6.51
2019-02-12T13:39:24.774Z,6.46
2019-02-12T13:41:53.398Z,6.47
2019-02-12T13:44:22.264Z,6.61
2019-02-12T13:46:50.894Z,6.55
2019-02-12T13:49:19.663Z,6.54
2019-02-12T13:51:48.306Z,6.47
2019-02-12T13:54:16.879Z,6.41
2019-02-12T13:56:45.499Z,6.56
2019-02-12T13:59:14.159Z,6.82
2019-02-12T14:01:42.758Z,6.67
2019-02-12T14:04:11.342Z,6.66
2019-02-12T14:06:39.972Z,6.61
2019-02-12T14:09:10.646Z,6.51
2019-02-12T14:11:39.388Z,6.69
2019-02-12T14:14:08.009Z,6.79
2019-02-12T14:16:36.779Z,6.92
2019-02-12T14:19:05.384Z,7.07
2019-02-12T14:21:33.981Z,6.83
2019-02-12T14:24:02.596Z,6.84
2019-02-12T14:26:31.310Z,7.00
2019-02-12T14:28:59.927Z,7.04
2019-02-12T14:31:28.512Z,7.09
2019-02-12T14:33:57.340Z,7.07
2019-02-12T14:36:26.300Z,7.25
2019-02-12T14:38:55.244Z,7.50
2019-02-12T14:41:24.071Z,7.47
2019-02-12T14:43:53.050Z,7.30
2019-02-12T14:46:24.534Z,7.38
2019-02-12T14:48:53.406Z,7.31
2019-02-12T14:51:22.248Z,7.37
2019-02-12T14:53:51.125Z,7.22
2019-02-12T14:56:20.079Z,7.31
2019-02-12T14:58:49.062Z,7.28
2019-02-12T15:01:18.026Z,7.20
2019-02-12T15:03:46.951Z,7.19
2019-02-12T15:06:15.792Z,7.24
2019-02-12T15:08:44.636Z,7.10
2019-02-12T15:11:13.677Z,6.99
2019-02-12T15:13:42.564Z,7.02
2019-02-12T15:16:11.564Z,6.93
2019-02-12T15:18:40.491Z,7.00
2019-02-12T15:21:09.319Z,7.00
2019-02-12T15:23:38.320Z,7.08
2019-02-12T15:26:07.128Z,7.12
2019-02-12T15:28:35.982Z,7.10
2019-02-12T15:31:05.026Z,6.99
2019-02-12T15:33:33.841Z,6.87
2019-02-12T15:36:02.840Z,6.88
2019-02-12T15:38:51.015Z,6.77
2019-02-12T15:41:20.037Z,6.76
2019-02-12T15:43:49.292Z,6.68
2019-02-12T15:46:18.391Z,6.62
2019-02-12T15:48:47.593Z,6.56
2019-02-12T15:51:16.585Z,6.54
2019-02-12T15:53:45.687Z,6.43
2019-02-12T15:56:14.834Z,6.45
2019-02-12T15:58:43.863Z,6.45
2019-02-12T16:01:12.773Z,6.48
2019-02-12T16:03:41.734Z,6.40
2019-02-12T16:06:11.447Z,6.34
2019-02-12T16:08:41.196Z,6.32
2019-02-12T16:11:10.492Z,6.28
2019-02-12T16:13:39.830Z,6.25
2019-02-12T16:16:09.927Z,6.24
2019-02-12T16:18:39.496Z,6.21
2019-02-12T16:21:08.839Z,6.10
2019-02-12T16:23:37.845Z,6.21
2019-02-12T16:26:06.832Z,6.22
2019-02-12T16:28:35.781Z,6.17
2019-02-12T16:31:04.693Z,6.16
2019-02-12T16:33:33.715Z,6.12
2019-02-12T16:36:02.563Z,6.06
2019-02-12T16:38:31.494Z,5.95
2019-02-12T16:41:00.418Z,5.89
2019-02-12T16:43:29.246Z,5.83
2019-02-12T16:46:04.716Z,5.78
2019-02-12T16:48:33.766Z,5.74
2019-02-12T16:51:03.192Z,5.70
2019-02-12T16:53:32.002Z,5.67
2019-02-12T16:56:08.173Z,5.61
2019-02-12T16:58:31.637Z,5.61
2019-02-12T17:01:00.624Z,5.57
2019-02-12T17:03:29.452Z,5.53
2019-02-12T17:05:58.458Z,5.46
2019-02-12T17:08:27.461Z,5.39
2019-02-12T17:10:56.352Z,5.33
2019-02-12T17:13:25.736Z,5.28
2019-02-12T17:15:54.684Z,5.23
2019-02-12T17:18:23.598Z,5.15
2019-02-12T17:20:52.724Z,5.08
2019-02-12T17:23:21.951Z,5.03
2019-02-12T17:25:50.814Z,4.99
2019-02-12T17:28:19.759Z,4.92
2019-02-12T17:30:48.645Z,4.90
2019-02-12T17:33:18.092Z,4.85
2019-02-12T17:35:47.540Z,4.80
2019-02-12T17:38:16.534Z,4.75
2019-02-12T17:40:45.400Z,4.71
2019-02-12T17:43:14.281Z,4.69
2019-02-12T17:45:43.197Z,4.66
2019-02-12T17:48:12.166Z,4.61
2019-02-12T17:50:41.114Z,4.56
2019-02-12T17:53:10.117Z,4.52
2019-02-12T17:55:38.976Z,4.49
2019-02-12T17:58:08.021Z,4.44
2019-02-12T18:00:41.764Z,4.38
2019-02-12T18:03:10.644Z,4.36
2019-02-12T18:05:39.625Z,4.43
2019-02-12T18:08:08.670Z,4.31
2019-02-12T18:10:37.625Z,4.37
2019-02-12T18:13:07.062Z,4.33
2019-02-12T18:15:36.023Z,4.26
2019-02-12T18:18:05.082Z,4.17
2019-02-12T18:20:33.927Z,4.08
2019-02-12T18:23:02.843Z,4.08
2019-02-12T18:25:31.947Z,4.07
2019-02-12T18:28:00.735Z,4.03
2019-02-12T18:30:29.666Z,3.93
2019-02-12T18:32:58.571Z,3.88
2019-02-12T18:35:27.513Z,3.70
2019-02-12T18:37:56.393Z,3.47
2019-02-12T18:40:25.433Z,3.50
2019-02-12T18:42:54.345Z,3.37
2019-02-12T18:45:23.334Z,3.27
2019-02-12T18:47:52.244Z,3.20
2019-02-12T18:50:21.175Z,3.15
2019-02-12T18:52:50.123Z,3.08
2019-02-12T18:55:19.239Z,3.04
2019-02-12T18:57:48.211Z,3.02
2019-02-12T19:00:18.615Z,3.01
2019-02-12T19:02:47.591Z,3.00
2019-02-12T19:05:16.761Z,3.01
2019-02-12T19:07:45.727Z,2.96
2019-02-12T19:10:14.889Z,2.96
2019-02-12T19:12:43.810Z,3.00
2019-02-12T19:15:14.371Z,2.99
2019-02-12T19:17:45.151Z,2.93
2019-02-12T19:20:14.090Z,2.87
2019-02-12T19:22:42.992Z,2.67
2019-02-12T19:25:11.976Z,2.80
2019-02-12T19:27:40.815Z,2.66
2019-02-12T19:30:12.010Z,2.53
2019-02-12T19:32:40.907Z,2.61
2019-02-12T19:35:09.922Z,2.39
2019-02-12T19:37:38.971Z,2.50
2019-02-12T19:40:08.572Z,2.44
2019-02-12T19:42:37.486Z,2.38
2019-02-12T19:45:07.575Z,2.33
2019-02-12T19:47:36.465Z,2.31
2019-02-12T19:50:06.282Z,2.26
2019-02-12T19:52:35.271Z,2.17
2019-02-12T19:55:04.558Z,2.08
2019-02-12T19:57:33.498Z,2.10
2019-02-12T20:00:02.574Z,2.12
2019-02-12T20:02:33.274Z,2.22
2019-02-12T20:05:02.617Z,2.23
2019-02-12T20:07:31.524Z,2.13
2019-02-12T20:10:00.603Z,2.07
2019-02-12T20:12:32.122Z,1.94
2019-02-12T20:15:08.359Z,1.84
2019-02-12T20:17:37.503Z,1.74
2019-02-12T20:20:07.797Z,1.72
2019-02-12T20:22:36.809Z,1.59
2019-02-12T20:25:06.171Z,1.56
2019-02-12T20:27:36.128Z,1.55
2019-02-12T20:30:06.721Z,1.46
2019-02-12T20:32:35.674Z,1.42
2019-02-12T20:35:04.890Z,1.48
2019-02-12T20:37:34.747Z,1.47
2019-02-12T20:40:05.457Z,1.47
2019-02-12T20:42:34.468Z,1.48
2019-02-12T20:45:03.721Z,1.46
2019-02-12T20:47:32.775Z,1.49
2019-02-12T20:50:01.881Z,1.49
2019-02-12T20:52:31.291Z,1.41
2019-02-12T20:55:00.297Z,1.43
2019-02-12T20:57:29.456Z,1.43
2019-02-12T20:59:58.347Z,1.51
2019-02-12T21:02:29.474Z,1.61
2019-02-12T21:04:58.503Z,1.65
2019-02-12T21:07:27.738Z,1.70
2019-02-12T21:09:57.122Z,1.63
2019-02-12T21:12:25.995Z,1.50
2019-02-12T21:14:54.933Z,1.45
2019-02-12T21:17:23.828Z,1.47
2019-02-12T21:19:52.658Z,1.40
2019-02-12T21:22:22.624Z,1.31
2019-02-12T21:24:51.658Z,1.31
2019-02-12T21:27:23.543Z,1.47
2019-02-12T21:29:51.107Z,1.59
2019-02-12T21:32:19.948Z,1.55
2019-02-12T21:34:48.941Z,1.55
2019-02-12T21:37:17.854Z,1.53
2019-02-12T21:39:47.188Z,1.56
2019-02-12T21:42:16.209Z,1.50
2019-02-12T21:44:45.171Z,1.38
2019-02-12T21:47:14.112Z,1.28
2019-02-12T21:49:42.962Z,1.23
2019-02-12T21:52:11.920Z,1.27
2019-02-12T21:54:40.949Z,1.28
2019-02-12T21:57:09.872Z,1.37
2019-02-12T21:59:38.693Z,1.45
2019-02-12T22:02:07.607Z,1.48
2019-02-12T22:04:36.555Z,1.43
2019-02-12T22:07:05.545Z,1.33
2019-02-12T22:09:34.461Z,1.22
2019-02-12T22:12:03.287Z,1.24
2019-02-12T22:14:32.486Z,1.10
2019-02-12T22:17:01.502Z,1.28
2019-02-12T22:19:30.287Z,1.44
2019-02-12T22:21:59.266Z,1.34
2019-02-12T22:24:28.209Z,1.33
2019-02-12T22:26:57.157Z,1.20
2019-02-12T22:29:26.034Z,1.07
2019-02-12T22:31:54.924Z,1.14
2019-02-12T22:34:23.780Z,0.99
2019-02-12T22:36:52.657Z,0.74
2019-02-12T22:39:22.090Z,0.77
2019-02-12T22:41:50.989Z,0.76
2019-02-12T22:44:19.964Z,0.75
2019-02-12T22:46:48.955Z,0.71
2019-02-12T22:49:18.150Z,0.88
2019-02-12T22:51:47.065Z,1.07
2019-02-12T22:54:15.973Z,1.12
2019-02-12T22:56:44.828Z,1.00
2019-02-12T22:59:13.682Z,1.06
2019-02-12T23:01:42.848Z,0.80
2019-02-12T23:04:11.732Z,0.58
2019-02-12T23:06:40.718Z,0.30
2019-02-12T23:09:18.293Z,0.21
2019-02-12T23:11:47.225Z,0.29
2019-02-12T23:14:16.205Z,0.64
2019-02-12T23:16:45.151Z,0.67
2019-02-12T23:19:14.148Z,0.59
2019-02-12T23:21:43.014Z,0.65
2019-02-12T23:24:11.998Z,0.58
2019-02-12T23:26:40.973Z,0.63
2019-02-12T23:29:10.029Z,0.59
2019-02-12T23:31:38.826Z,0.59
2019-02-12T23:34:07.846Z,0.47
2019-02-12T23:36:36.711Z,0.44
2019-02-12T23:39:06.385Z,0.50
2019-02-12T23:41:35.542Z,0.42
2019-02-12T23:44:04.425Z,0.21
2019-02-12T23:46:33.325Z,0.07
2019-02-12T23:49:02.250Z,-0.06
2019-02-12T23:51:31.083Z,-0.15
2019-02-12T23:53:59.895Z,-0.18
2019-02-12T23:56:28.923Z,-0.23
2019-02-12T23:58:57.975Z,-0.39
